sensor_id;sensor_type;location;lat;lon;timestamp;temperature;humidity
18260;DHT22;9256;52.236;5.712;2023-09-19T00:01:33;14.60;99.90
18260;DHT22;9256;52.236;5.712;2023-09-19T00:04:02;14.60;99.90
18260;DHT22;9256;52.236;5.712;2023-09-19T00:06:29;14.60;99.90
18260;DHT22;9256;52.236;5.712;2023-09-19T00:08:57;14.60;99.90
18260;DHT22;9256;52.236;5.712;2023-09-19T00:11:26;14.60;99.90
18260;DHT22;9256;52.236;5.712;2023-09-19T00:13:54;14.60;99.90
18260;DHT22;9256;52.236;5.712;2023-09-19T00:16:25;14.60;99.90
18260;DHT22;9256;52.236;5.712;2023-09-19T00:18:52;14.60;99.90
18260;DHT22;9256;52.236;5.712;2023-09-19T00:21:21;14.60;99.90
18260;DHT22;9256;52.236;5.712;2023-09-19T00:23:48;14.50;99.90
18260;DHT22;9256;52.236;5.712;2023-09-19T00:26:17;14.60;99.90
18260;DHT22;9256;52.236;5.712;2023-09-19T00:28:44;14.50;99.90
18260;DHT22;9256;52.236;5.712;2023-09-19T00:31:11;14.50;99.90
18260;DHT22;9256;52.236;5.712;2023-09-19T00:33:38;14.50;99.90
18260;DHT22;9256;52.236;5.712;2023-09-19T00:36:05;14.50;99.90
18260;DHT22;9256;52.236;5.712;2023-09-19T00:38:34;14.50;99.90
18260;DHT22;9256;52.236;5.712;2023-09-19T00:41:01;14.50;99.90
18260;DHT22;9256;52.236;5.712;2023-09-19T00:43:28;14.50;99.90
18260;DHT22;9256;52.236;5.712;2023-09-19T00:45:59;14.40;99.90
18260;DHT22;9256;52.236;5.712;2023-09-19T00:48:28;14.40;99.90
18260;DHT22;9256;52.236;5.712;2023-09-19T00:50:57;14.30;99.90
18260;DHT22;9256;52.236;5.712;2023-09-19T00:53:25;14.30;99.90
18260;DHT22;9256;52.236;5.712;2023-09-19T00:55:54;14.30;99.90
18260;DHT22;9256;52.236;5.712;2023-09-19T00:58:21;14.40;99.90
18260;DHT22;9256;52.236;5.712;2023-09-19T01:00:49;14.30;99.90
18260;DHT22;9256;52.236;5.712;2023-09-19T01:03:17;14.30;99.90
18260;DHT22;9256;52.236;5.712;2023-09-19T01:05:44;14.30;99.90
18260;DHT22;9256;52.236;5.712;2023-09-19T01:08:11;14.30;99.90
18260;DHT22;9256;52.236;5.712;2023-09-19T01:10:44;14.30;99.90
18260;DHT22;9256;52.236;5.712;2023-09-19T01:13:22;14.30;99.90
18260;DHT22;9256;52.236;5.712;2023-09-19T01:15:59;14.30;99.90
18260;DHT22;9256;52.236;5.712;2023-09-19T01:18:37;14.30;99.90
18260;DHT22;9256;52.236;5.712;2023-09-19T01:21:13;14.30;99.90
18260;DHT22;9256;52.236;5.712;2023-09-19T01:24:10;14.30;99.90
18260;DHT22;9256;52.236;5.712;2023-09-19T01:27:06;14.30;99.90
18260;DHT22;9256;52.236;5.712;2023-09-19T01:29:43;14.20;99.90
18260;DHT22;9256;52.236;5.712;2023-09-19T01:32:16;14.30;99.90
18260;DHT22;9256;52.236;5.712;2023-09-19T01:34:48;14.20;99.90
18260;DHT22;9256;52.236;5.712;2023-09-19T01:37:16;14.20;99.90
18260;DHT22;9256;52.236;5.712;2023-09-19T01:39:46;14.30;99.90
18260;DHT22;9256;52.236;5.712;2023-09-19T01:42:23;14.20;99.90
18260;DHT22;9256;52.236;5.712;2023-09-19T01:44:57;14.20;99.90
18260;DHT22;9256;52.236;5.712;2023-09-19T01:47:32;14.20;99.90
18260;DHT22;9256;52.236;5.712;2023-09-19T01:50:13;14.20;99.90
18260;DHT22;9256;52.236;5.712;2023-09-19T01:52:48;14.10;99.90
18260;DHT22;9256;52.236;5.712;2023-09-19T01:55:17;14.10;99.90
18260;DHT22;9256;52.236;5.712;2023-09-19T01:57:52;14.20;99.90
18260;DHT22;9256;52.236;5.712;2023-09-19T02:00:22;14.10;99.90
18260;DHT22;9256;52.236;5.712;2023-09-19T02:02:51;14.10;99.90
18260;DHT22;9256;52.236;5.712;2023-09-19T02:05:24;14.10;99.90
18260;DHT22;9256;52.236;5.712;2023-09-19T02:07:52;14.10;99.90
18260;DHT22;9256;52.236;5.712;2023-09-19T02:10:21;14.10;99.90
18260;DHT22;9256;52.236;5.712;2023-09-19T02:12:49;14.20;99.90
18260;DHT22;9256;52.236;5.712;2023-09-19T02:15:16;14.30;99.90
18260;DHT22;9256;52.236;5.712;2023-09-19T02:17:43;14.20;99.90
18260;DHT22;9256;52.236;5.712;2023-09-19T02:20:13;14.20;99.90
18260;DHT22;9256;52.236;5.712;2023-09-19T02:22:41;14.20;99.90
18260;DHT22;9256;52.236;5.712;2023-09-19T02:25:08;14.20;99.90
18260;DHT22;9256;52.236;5.712;2023-09-19T02:27:35;14.30;99.90
18260;DHT22;9256;52.236;5.712;2023-09-19T02:30:03;14.20;99.90
18260;DHT22;9256;52.236;5.712;2023-09-19T02:32:31;14.20;99.90
18260;DHT22;9256;52.236;5.712;2023-09-19T02:35:02;14.20;99.90
18260;DHT22;9256;52.236;5.712;2023-09-19T02:37:31;14.20;99.90
18260;DHT22;9256;52.236;5.712;2023-09-19T02:40:00;14.10;99.90
18260;DHT22;9256;52.236;5.712;2023-09-19T02:42:28;14.10;99.90
18260;DHT22;9256;52.236;5.712;2023-09-19T02:44:55;14.10;99.90
18260;DHT22;9256;52.236;5.712;2023-09-19T02:47:22;14.10;99.90
18260;DHT22;9256;52.236;5.712;2023-09-19T02:49:49;14.10;99.90
18260;DHT22;9256;52.236;5.712;2023-09-19T02:52:17;14.10;99.90
18260;DHT22;9256;52.236;5.712;2023-09-19T02:54:45;14.10;99.90
18260;DHT22;9256;52.236;5.712;2023-09-19T02:57:12;14.10;99.90
18260;DHT22;9256;52.236;5.712;2023-09-19T02:59:42;14.10;99.90
18260;DHT22;9256;52.236;5.712;2023-09-19T03:02:09;14.00;99.90
18260;DHT22;9256;52.236;5.712;2023-09-19T03:04:36;13.90;99.90
18260;DHT22;9256;52.236;5.712;2023-09-19T03:07:03;13.90;99.90
18260;DHT22;9256;52.236;5.712;2023-09-19T03:09:31;13.90;99.90
18260;DHT22;9256;52.236;5.712;2023-09-19T03:11:59;13.80;99.90
18260;DHT22;9256;52.236;5.712;2023-09-19T03:14:26;13.90;99.90
18260;DHT22;9256;52.236;5.712;2023-09-19T03:16:55;13.90;99.90
18260;DHT22;9256;52.236;5.712;2023-09-19T03:19:22;13.90;99.90
18260;DHT22;9256;52.236;5.712;2023-09-19T03:21:51;13.90;99.90
18260;DHT22;9256;52.236;5.712;2023-09-19T03:24:19;13.90;99.90
18260;DHT22;9256;52.236;5.712;2023-09-19T03:26:46;13.80;99.90
18260;DHT22;9256;52.236;5.712;2023-09-19T03:29:14;13.70;99.90
18260;DHT22;9256;52.236;5.712;2023-09-19T03:31:42;13.60;99.90
18260;DHT22;9256;52.236;5.712;2023-09-19T03:34:09;13.60;99.90
18260;DHT22;9256;52.236;5.712;2023-09-19T03:36:36;13.60;99.90
18260;DHT22;9256;52.236;5.712;2023-09-19T03:39:03;13.60;99.90
18260;DHT22;9256;52.236;5.712;2023-09-19T03:41:31;13.40;99.90
18260;DHT22;9256;52.236;5.712;2023-09-19T03:43:58;13.40;99.90
18260;DHT22;9256;52.236;5.712;2023-09-19T03:46:27;13.40;99.90
18260;DHT22;9256;52.236;5.712;2023-09-19T03:48:54;13.40;99.90
18260;DHT22;9256;52.236;5.712;2023-09-19T03:51:21;13.40;99.90
18260;DHT22;9256;52.236;5.712;2023-09-19T03:53:48;13.30;99.90
18260;DHT22;9256;52.236;5.712;2023-09-19T03:56:15;13.40;99.90
18260;DHT22;9256;52.236;5.712;2023-09-19T03:58:43;13.40;99.90
18260;DHT22;9256;52.236;5.712;2023-09-19T04:01:10;13.30;99.90
18260;DHT22;9256;52.236;5.712;2023-09-19T04:03:40;13.30;99.90
18260;DHT22;9256;52.236;5.712;2023-09-19T04:06:13;13.20;99.90
18260;DHT22;9256;52.236;5.712;2023-09-19T04:08:40;13.30;99.90
18260;DHT22;9256;52.236;5.712;2023-09-19T04:11:07;13.00;99.90
18260;DHT22;9256;52.236;5.712;2023-09-19T04:13:34;13.00;99.90
18260;DHT22;9256;52.236;5.712;2023-09-19T04:16:01;13.10;99.90
18260;DHT22;9256;52.236;5.712;2023-09-19T04:18:29;13.10;99.90
18260;DHT22;9256;52.236;5.712;2023-09-19T04:20:59;13.10;99.90
18260;DHT22;9256;52.236;5.712;2023-09-19T04:23:28;13.00;99.90
18260;DHT22;9256;52.236;5.712;2023-09-19T04:25:55;13.00;99.90
18260;DHT22;9256;52.236;5.712;2023-09-19T04:28:22;13.00;99.90
18260;DHT22;9256;52.236;5.712;2023-09-19T04:30:49;13.00;99.90
18260;DHT22;9256;52.236;5.712;2023-09-19T04:33:16;12.90;99.90
18260;DHT22;9256;52.236;5.712;2023-09-19T04:35:43;12.90;99.90
18260;DHT22;9256;52.236;5.712;2023-09-19T04:38:12;12.90;99.90
18260;DHT22;9256;52.236;5.712;2023-09-19T04:40:40;12.90;99.90
18260;DHT22;9256;52.236;5.712;2023-09-19T04:43:07;13.00;99.90
18260;DHT22;9256;52.236;5.712;2023-09-19T04:45:34;13.00;99.90
18260;DHT22;9256;52.236;5.712;2023-09-19T04:48:01;13.00;99.90
18260;DHT22;9256;52.236;5.712;2023-09-19T04:50:28;13.10;99.90
18260;DHT22;9256;52.236;5.712;2023-09-19T04:52:55;13.00;99.90
18260;DHT22;9256;52.236;5.712;2023-09-19T04:55:24;13.10;99.90
18260;DHT22;9256;52.236;5.712;2023-09-19T04:57:52;13.10;99.90
18260;DHT22;9256;52.236;5.712;2023-09-19T05:00:22;13.00;99.90
18260;DHT22;9256;52.236;5.712;2023-09-19T05:02:50;13.00;99.90
18260;DHT22;9256;52.236;5.712;2023-09-19T05:05:18;12.90;99.90
18260;DHT22;9256;52.236;5.712;2023-09-19T05:07:45;12.90;99.90
18260;DHT22;9256;52.236;5.712;2023-09-19T05:10:13;12.90;99.90
18260;DHT22;9256;52.236;5.712;2023-09-19T05:12:42;12.80;99.90
18260;DHT22;9256;52.236;5.712;2023-09-19T05:15:13;12.70;99.90
18260;DHT22;9256;52.236;5.712;2023-09-19T05:17:47;12.70;99.90
18260;DHT22;9256;52.236;5.712;2023-09-19T05:20:14;12.70;99.90
18260;DHT22;9256;52.236;5.712;2023-09-19T05:22:50;12.70;99.90
18260;DHT22;9256;52.236;5.712;2023-09-19T05:25:17;12.70;99.90
18260;DHT22;9256;52.236;5.712;2023-09-19T05:27:45;12.70;99.90
18260;DHT22;9256;52.236;5.712;2023-09-19T05:30:13;12.70;99.90
18260;DHT22;9256;52.236;5.712;2023-09-19T05:32:41;12.70;99.90
18260;DHT22;9256;52.236;5.712;2023-09-19T05:35:09;12.70;99.90
18260;DHT22;9256;52.236;5.712;2023-09-19T05:37:38;12.80;99.90
18260;DHT22;9256;52.236;5.712;2023-09-19T05:40:06;12.80;99.90
18260;DHT22;9256;52.236;5.712;2023-09-19T05:42:36;12.80;99.90
18260;DHT22;9256;52.236;5.712;2023-09-19T05:45:05;12.80;99.90
18260;DHT22;9256;52.236;5.712;2023-09-19T05:47:33;12.80;99.90
18260;DHT22;9256;52.236;5.712;2023-09-19T05:50:00;12.80;99.90
18260;DHT22;9256;52.236;5.712;2023-09-19T05:52:27;12.80;99.90
18260;DHT22;9256;52.236;5.712;2023-09-19T05:54:54;12.90;99.90
18260;DHT22;9256;52.236;5.712;2023-09-19T05:57:22;12.90;99.90
18260;DHT22;9256;52.236;5.712;2023-09-19T05:59:50;12.90;99.90
18260;DHT22;9256;52.236;5.712;2023-09-19T06:02:18;13.00;99.90
18260;DHT22;9256;52.236;5.712;2023-09-19T06:04:45;13.00;99.90
18260;DHT22;9256;52.236;5.712;2023-09-19T06:07:12;13.00;99.90
18260;DHT22;9256;52.236;5.712;2023-09-19T06:09:40;13.00;99.90
18260;DHT22;9256;52.236;5.712;2023-09-19T06:12:08;13.10;99.90
18260;DHT22;9256;52.236;5.712;2023-09-19T06:14:35;13.10;99.90
18260;DHT22;9256;52.236;5.712;2023-09-19T06:17:02;13.10;99.90
18260;DHT22;9256;52.236;5.712;2023-09-19T06:19:30;13.10;99.90
18260;DHT22;9256;52.236;5.712;2023-09-19T06:21:58;13.10;99.90
18260;DHT22;9256;52.236;5.712;2023-09-19T06:24:25;13.20;99.90
18260;DHT22;9256;52.236;5.712;2023-09-19T06:26:52;13.20;99.90
18260;DHT22;9256;52.236;5.712;2023-09-19T06:29:20;13.30;99.90
18260;DHT22;9256;52.236;5.712;2023-09-19T06:31:48;13.30;99.90
18260;DHT22;9256;52.236;5.712;2023-09-19T06:34:16;13.40;99.90
18260;DHT22;9256;52.236;5.712;2023-09-19T06:36:45;13.50;99.90
18260;DHT22;9256;52.236;5.712;2023-09-19T06:39:12;13.60;99.90
18260;DHT22;9256;52.236;5.712;2023-09-19T06:41:39;13.80;99.90
18260;DHT22;9256;52.236;5.712;2023-09-19T06:44:07;13.80;99.90
18260;DHT22;9256;52.236;5.712;2023-09-19T06:46:35;13.90;99.90
18260;DHT22;9256;52.236;5.712;2023-09-19T06:49:05;14.00;99.90
18260;DHT22;9256;52.236;5.712;2023-09-19T06:51:32;14.00;99.90
18260;DHT22;9256;52.236;5.712;2023-09-19T06:54:01;14.10;99.90
18260;DHT22;9256;52.236;5.712;2023-09-19T06:56:30;14.10;99.90
18260;DHT22;9256;52.236;5.712;2023-09-19T06:58:58;14.10;99.90
18260;DHT22;9256;52.236;5.712;2023-09-19T07:01:25;14.10;99.90
18260;DHT22;9256;52.236;5.712;2023-09-19T07:03:52;14.10;99.90
18260;DHT22;9256;52.236;5.712;2023-09-19T07:06:20;14.10;99.90
18260;DHT22;9256;52.236;5.712;2023-09-19T07:08:47;14.30;99.90
18260;DHT22;9256;52.236;5.712;2023-09-19T07:11:17;14.30;99.90
18260;DHT22;9256;52.236;5.712;2023-09-19T07:13:44;14.30;99.90
18260;DHT22;9256;52.236;5.712;2023-09-19T07:16:11;14.30;99.90
18260;DHT22;9256;52.236;5.712;2023-09-19T07:18:39;14.30;99.90
18260;DHT22;9256;52.236;5.712;2023-09-19T07:21:06;14.40;99.90
18260;DHT22;9256;52.236;5.712;2023-09-19T07:23:33;14.40;99.90
18260;DHT22;9256;52.236;5.712;2023-09-19T07:26:01;14.50;99.90
18260;DHT22;9256;52.236;5.712;2023-09-19T07:28:32;14.60;99.90
18260;DHT22;9256;52.236;5.712;2023-09-19T07:31:02;14.60;99.90
18260;DHT22;9256;52.236;5.712;2023-09-19T07:33:30;14.70;99.90
18260;DHT22;9256;52.236;5.712;2023-09-19T07:35:57;14.70;99.90
18260;DHT22;9256;52.236;5.712;2023-09-19T07:38:25;14.70;99.90
18260;DHT22;9256;52.236;5.712;2023-09-19T07:40:52;14.70;99.90
18260;DHT22;9256;52.236;5.712;2023-09-19T07:43:20;14.90;99.90
18260;DHT22;9256;52.236;5.712;2023-09-19T07:45:49;14.90;99.90
18260;DHT22;9256;52.236;5.712;2023-09-19T07:48:16;14.90;99.90
18260;DHT22;9256;52.236;5.712;2023-09-19T07:50:43;15.00;99.90
18260;DHT22;9256;52.236;5.712;2023-09-19T07:53:10;15.10;99.90
18260;DHT22;9256;52.236;5.712;2023-09-19T07:55:39;15.00;99.90
18260;DHT22;9256;52.236;5.712;2023-09-19T07:58:06;15.20;99.90
18260;DHT22;9256;52.236;5.712;2023-09-19T08:00:33;15.20;99.90
18260;DHT22;9256;52.236;5.712;2023-09-19T08:03:02;15.20;99.90
18260;DHT22;9256;52.236;5.712;2023-09-19T08:05:29;15.20;99.90
18260;DHT22;9256;52.236;5.712;2023-09-19T08:07:56;15.40;99.90
18260;DHT22;9256;52.236;5.712;2023-09-19T08:10:24;15.50;99.90
18260;DHT22;9256;52.236;5.712;2023-09-19T08:12:53;15.60;99.90
18260;DHT22;9256;52.236;5.712;2023-09-19T08:15:23;15.70;99.90
18260;DHT22;9256;52.236;5.712;2023-09-19T08:17:50;15.90;99.90
18260;DHT22;9256;52.236;5.712;2023-09-19T08:20:18;16.00;99.90
18260;DHT22;9256;52.236;5.712;2023-09-19T08:22:47;16.00;99.90
18260;DHT22;9256;52.236;5.712;2023-09-19T08:25:15;16.20;99.90
18260;DHT22;9256;52.236;5.712;2023-09-19T08:27:44;16.30;99.90
18260;DHT22;9256;52.236;5.712;2023-09-19T08:30:14;16.40;99.90
18260;DHT22;9256;52.236;5.712;2023-09-19T08:32:41;16.40;99.90
18260;DHT22;9256;52.236;5.712;2023-09-19T08:35:09;16.60;99.90
18260;DHT22;9256;52.236;5.712;2023-09-19T08:37:38;16.50;99.90
18260;DHT22;9256;52.236;5.712;2023-09-19T08:40:05;16.40;99.90
18260;DHT22;9256;52.236;5.712;2023-09-19T08:42:47;16.40;99.90
18260;DHT22;9256;52.236;5.712;2023-09-19T08:45:16;16.50;99.90
18260;DHT22;9256;52.236;5.712;2023-09-19T08:47:46;16.50;99.90
18260;DHT22;9256;52.236;5.712;2023-09-19T08:50:19;16.50;99.90
18260;DHT22;9256;52.236;5.712;2023-09-19T08:52:51;16.60;99.90
18260;DHT22;9256;52.236;5.712;2023-09-19T08:55:23;16.60;99.90
18260;DHT22;9256;52.236;5.712;2023-09-19T08:57:55;16.50;99.90
18260;DHT22;9256;52.236;5.712;2023-09-19T09:00:26;16.40;99.90
18260;DHT22;9256;52.236;5.712;2023-09-19T09:02:54;16.60;99.90
18260;DHT22;9256;52.236;5.712;2023-09-19T09:05:22;16.60;99.90
18260;DHT22;9256;52.236;5.712;2023-09-19T09:07:52;16.70;99.90
18260;DHT22;9256;52.236;5.712;2023-09-19T09:10:20;16.70;99.90
18260;DHT22;9256;52.236;5.712;2023-09-19T09:12:49;16.80;99.90
18260;DHT22;9256;52.236;5.712;2023-09-19T09:15:19;17.00;99.90
18260;DHT22;9256;52.236;5.712;2023-09-19T09:17:47;17.10;99.90
18260;DHT22;9256;52.236;5.712;2023-09-19T09:20:16;17.30;99.90
18260;DHT22;9256;52.236;5.712;2023-09-19T09:22:52;17.40;99.90
18260;DHT22;9256;52.236;5.712;2023-09-19T09:25:20;17.50;99.90
18260;DHT22;9256;52.236;5.712;2023-09-19T09:27:58;17.40;99.90
18260;DHT22;9256;52.236;5.712;2023-09-19T09:30:33;17.40;99.90
18260;DHT22;9256;52.236;5.712;2023-09-19T09:33:08;17.30;99.90
18260;DHT22;9256;52.236;5.712;2023-09-19T09:35:36;17.40;99.90
18260;DHT22;9256;52.236;5.712;2023-09-19T09:38:05;17.50;99.90
18260;DHT22;9256;52.236;5.712;2023-09-19T09:40:46;17.70;99.90
18260;DHT22;9256;52.236;5.712;2023-09-19T09:43:29;18.00;99.90
18260;DHT22;9256;52.236;5.712;2023-09-19T09:46:13;18.00;99.90
18260;DHT22;9256;52.236;5.712;2023-09-19T09:49:03;18.10;99.90
18260;DHT22;9256;52.236;5.712;2023-09-19T09:51:59;18.10;99.90
18260;DHT22;9256;52.236;5.712;2023-09-19T09:54:32;17.80;99.90
18260;DHT22;9256;52.236;5.712;2023-09-19T09:57:04;17.80;99.90
18260;DHT22;9256;52.236;5.712;2023-09-19T10:00:00;18.10;99.90
18260;DHT22;9256;52.236;5.712;2023-09-19T10:02:45;18.10;99.90
18260;DHT22;9256;52.236;5.712;2023-09-19T10:05:13;18.10;99.90
18260;DHT22;9256;52.236;5.712;2023-09-19T10:07:46;18.00;99.90
18260;DHT22;9256;52.236;5.712;2023-09-19T10:10:29;18.00;99.90
18260;DHT22;9256;52.236;5.712;2023-09-19T10:13:05;18.00;99.90
18260;DHT22;9256;52.236;5.712;2023-09-19T10:15:33;17.90;99.90
18260;DHT22;9256;52.236;5.712;2023-09-19T10:18:04;17.80;99.90
18260;DHT22;9256;52.236;5.712;2023-09-19T10:20:34;18.00;99.90
18260;DHT22;9256;52.236;5.712;2023-09-19T10:23:08;17.90;99.90
18260;DHT22;9256;52.236;5.712;2023-09-19T10:25:38;17.90;99.90
18260;DHT22;9256;52.236;5.712;2023-09-19T10:28:07;17.80;99.90
18260;DHT22;9256;52.236;5.712;2023-09-19T10:30:37;17.80;99.90
18260;DHT22;9256;52.236;5.712;2023-09-19T10:33:09;17.80;99.90
18260;DHT22;9256;52.236;5.712;2023-09-19T10:35:39;17.70;99.90
18260;DHT22;9256;52.236;5.712;2023-09-19T10:38:07;17.80;99.90
18260;DHT22;9256;52.236;5.712;2023-09-19T10:40:38;17.90;99.90
18260;DHT22;9256;52.236;5.712;2023-09-19T10:43:12;17.90;99.90
18260;DHT22;9256;52.236;5.712;2023-09-19T10:45:41;18.10;99.90
18260;DHT22;9256;52.236;5.712;2023-09-19T10:48:10;18.30;99.90
18260;DHT22;9256;52.236;5.712;2023-09-19T10:50:44;18.50;99.90
18260;DHT22;9256;52.236;5.712;2023-09-19T10:53:15;18.70;99.90
18260;DHT22;9256;52.236;5.712;2023-09-19T10:55:52;18.90;99.90
18260;DHT22;9256;52.236;5.712;2023-09-19T10:58:27;19.30;99.90
18260;DHT22;9256;52.236;5.712;2023-09-19T11:00:56;19.40;99.90
18260;DHT22;9256;52.236;5.712;2023-09-19T11:03:28;19.50;99.90
18260;DHT22;9256;52.236;5.712;2023-09-19T11:06:05;19.20;99.90
18260;DHT22;9256;52.236;5.712;2023-09-19T11:08:59;19.10;99.90
18260;DHT22;9256;52.236;5.712;2023-09-19T11:11:53;19.20;99.90
18260;DHT22;9256;52.236;5.712;2023-09-19T11:14:41;19.30;99.90
18260;DHT22;9256;52.236;5.712;2023-09-19T11:17:40;19.30;99.90
18260;DHT22;9256;52.236;5.712;2023-09-19T11:20:24;19.00;99.90
18260;DHT22;9256;52.236;5.712;2023-09-19T11:23:20;18.60;99.90
18260;DHT22;9256;52.236;5.712;2023-09-19T11:25:53;18.50;99.90
18260;DHT22;9256;52.236;5.712;2023-09-19T11:28:34;18.70;99.90
18260;DHT22;9256;52.236;5.712;2023-09-19T11:34:38;19.20;99.90
18260;DHT22;9256;52.236;5.712;2023-09-19T11:40:45;19.70;99.90
18260;DHT22;9256;52.236;5.712;2023-09-19T11:43:31;19.60;99.90
18260;DHT22;9256;52.236;5.712;2023-09-19T11:46:07;19.40;99.90
18260;DHT22;9256;52.236;5.712;2023-09-19T11:48:41;19.20;99.90
18260;DHT22;9256;52.236;5.712;2023-09-19T11:51:11;18.90;99.90
18260;DHT22;9256;52.236;5.712;2023-09-19T11:53:45;18.90;99.90
18260;DHT22;9256;52.236;5.712;2023-09-19T11:56:15;18.80;99.90
18260;DHT22;9256;52.236;5.712;2023-09-19T11:58:43;18.80;99.90
18260;DHT22;9256;52.236;5.712;2023-09-19T12:01:14;18.90;99.90
18260;DHT22;9256;52.236;5.712;2023-09-19T12:03:47;18.90;99.90
18260;DHT22;9256;52.236;5.712;2023-09-19T12:06:16;18.90;99.90
18260;DHT22;9256;52.236;5.712;2023-09-19T12:08:44;19.10;99.90
18260;DHT22;9256;52.236;5.712;2023-09-19T12:11:13;19.20;99.90
18260;DHT22;9256;52.236;5.712;2023-09-19T12:13:42;19.30;99.90
18260;DHT22;9256;52.236;5.712;2023-09-19T12:16:16;19.10;99.90
18260;DHT22;9256;52.236;5.712;2023-09-19T12:18:47;18.90;99.90
18260;DHT22;9256;52.236;5.712;2023-09-19T12:21:26;18.70;99.90
18260;DHT22;9256;52.236;5.712;2023-09-19T12:23:59;18.60;99.90
18260;DHT22;9256;52.236;5.712;2023-09-19T12:26:27;18.40;99.90
18260;DHT22;9256;52.236;5.712;2023-09-19T12:28:55;18.40;99.90
18260;DHT22;9256;52.236;5.712;2023-09-19T12:31:24;18.40;99.90
18260;DHT22;9256;52.236;5.712;2023-09-19T12:33:55;18.60;99.90
18260;DHT22;9256;52.236;5.712;2023-09-19T12:36:23;18.70;99.90
18260;DHT22;9256;52.236;5.712;2023-09-19T12:38:56;18.70;99.90
18260;DHT22;9256;52.236;5.712;2023-09-19T12:41:25;18.60;99.90
18260;DHT22;9256;52.236;5.712;2023-09-19T12:43:52;18.70;99.90
18260;DHT22;9256;52.236;5.712;2023-09-19T12:46:20;18.70;99.90
18260;DHT22;9256;52.236;5.712;2023-09-19T12:49:15;18.70;99.90
18260;DHT22;9256;52.236;5.712;2023-09-19T12:51:44;18.60;99.90
18260;DHT22;9256;52.236;5.712;2023-09-19T12:54:12;18.60;99.90
18260;DHT22;9256;52.236;5.712;2023-09-19T12:56:41;18.60;99.90
18260;DHT22;9256;52.236;5.712;2023-09-19T12:59:11;18.70;99.90
18260;DHT22;9256;52.236;5.712;2023-09-19T13:01:39;18.50;99.90
18260;DHT22;9256;52.236;5.712;2023-09-19T13:04:15;18.40;99.90
18260;DHT22;9256;52.236;5.712;2023-09-19T13:06:45;18.30;99.90
18260;DHT22;9256;52.236;5.712;2023-09-19T13:09:14;18.20;99.90
18260;DHT22;9256;52.236;5.712;2023-09-19T13:11:42;18.20;99.90
18260;DHT22;9256;52.236;5.712;2023-09-19T13:14:18;18.30;99.90
18260;DHT22;9256;52.236;5.712;2023-09-19T13:16:59;18.30;99.90
18260;DHT22;9256;52.236;5.712;2023-09-19T13:19:39;18.50;99.90
18260;DHT22;9256;52.236;5.712;2023-09-19T13:22:37;18.60;99.90
18260;DHT22;9256;52.236;5.712;2023-09-19T13:25:08;18.70;99.90
18260;DHT22;9256;52.236;5.712;2023-09-19T13:27:40;18.80;99.90
18260;DHT22;9256;52.236;5.712;2023-09-19T13:30:08;19.10;99.90
18260;DHT22;9256;52.236;5.712;2023-09-19T13:32:35;19.00;99.90
18260;DHT22;9256;52.236;5.712;2023-09-19T13:35:07;18.90;99.90
18260;DHT22;9256;52.236;5.712;2023-09-19T13:37:35;18.70;99.90
18260;DHT22;9256;52.236;5.712;2023-09-19T13:40:05;18.50;99.90
18260;DHT22;9256;52.236;5.712;2023-09-19T13:42:32;18.40;99.90
18260;DHT22;9256;52.236;5.712;2023-09-19T13:44:59;18.20;99.90
18260;DHT22;9256;52.236;5.712;2023-09-19T13:47:26;18.20;99.90
18260;DHT22;9256;52.236;5.712;2023-09-19T13:49:54;18.10;99.90
18260;DHT22;9256;52.236;5.712;2023-09-19T13:52:22;18.20;99.90
18260;DHT22;9256;52.236;5.712;2023-09-19T13:54:50;18.40;99.90
18260;DHT22;9256;52.236;5.712;2023-09-19T13:57:18;18.50;99.90
18260;DHT22;9256;52.236;5.712;2023-09-19T13:59:45;18.60;99.90
18260;DHT22;9256;52.236;5.712;2023-09-19T14:02:13;18.80;99.90
18260;DHT22;9256;52.236;5.712;2023-09-19T14:04:40;18.80;99.90
18260;DHT22;9256;52.236;5.712;2023-09-19T14:07:07;18.90;99.90
18260;DHT22;9256;52.236;5.712;2023-09-19T14:09:36;18.80;99.90
18260;DHT22;9256;52.236;5.712;2023-09-19T14:12:03;18.80;99.90
18260;DHT22;9256;52.236;5.712;2023-09-19T14:14:30;18.60;99.90
18260;DHT22;9256;52.236;5.712;2023-09-19T14:16:57;18.60;99.90
18260;DHT22;9256;52.236;5.712;2023-09-19T14:19:26;18.50;99.90
18260;DHT22;9256;52.236;5.712;2023-09-19T14:21:53;18.40;99.90
18260;DHT22;9256;52.236;5.712;2023-09-19T14:24:21;18.50;99.90
18260;DHT22;9256;52.236;5.712;2023-09-19T14:26:49;18.40;99.90
18260;DHT22;9256;52.236;5.712;2023-09-19T14:29:17;18.50;99.90
18260;DHT22;9256;52.236;5.712;2023-09-19T14:31:45;18.50;99.90
18260;DHT22;9256;52.236;5.712;2023-09-19T14:34:12;18.50;99.90
18260;DHT22;9256;52.236;5.712;2023-09-19T14:36:40;18.50;99.90
18260;DHT22;9256;52.236;5.712;2023-09-19T14:39:07;18.40;99.90
18260;DHT22;9256;52.236;5.712;2023-09-19T14:41:34;18.50;99.90
18260;DHT22;9256;52.236;5.712;2023-09-19T14:44:04;18.40;99.90
18260;DHT22;9256;52.236;5.712;2023-09-19T14:46:31;18.40;99.90
18260;DHT22;9256;52.236;5.712;2023-09-19T14:48:58;18.50;99.90
18260;DHT22;9256;52.236;5.712;2023-09-19T14:51:29;18.60;99.90
18260;DHT22;9256;52.236;5.712;2023-09-19T14:53:56;18.60;99.90
18260;DHT22;9256;52.236;5.712;2023-09-19T14:56:23;18.60;99.90
18260;DHT22;9256;52.236;5.712;2023-09-19T14:58:51;18.50;99.90
18260;DHT22;9256;52.236;5.712;2023-09-19T15:01:19;18.50;99.90
18260;DHT22;9256;52.236;5.712;2023-09-19T15:03:47;18.40;99.90
18260;DHT22;9256;52.236;5.712;2023-09-19T15:06:15;18.40;99.90
18260;DHT22;9256;52.236;5.712;2023-09-19T15:08:45;18.40;99.90
18260;DHT22;9256;52.236;5.712;2023-09-19T15:11:13;18.30;99.90
18260;DHT22;9256;52.236;5.712;2023-09-19T15:13:42;18.20;99.90
18260;DHT22;9256;52.236;5.712;2023-09-19T15:16:09;18.20;99.90
18260;DHT22;9256;52.236;5.712;2023-09-19T15:18:39;18.20;99.90
18260;DHT22;9256;52.236;5.712;2023-09-19T15:21:08;18.10;99.90
18260;DHT22;9256;52.236;5.712;2023-09-19T15:23:36;18.20;99.90
18260;DHT22;9256;52.236;5.712;2023-09-19T15:26:05;18.10;99.90
18260;DHT22;9256;52.236;5.712;2023-09-19T15:28:32;17.80;99.90
18260;DHT22;9256;52.236;5.712;2023-09-19T15:31:00;17.50;99.90
18260;DHT22;9256;52.236;5.712;2023-09-19T15:33:27;17.30;99.90
18260;DHT22;9256;52.236;5.712;2023-09-19T15:36:02;17.20;99.90
18260;DHT22;9256;52.236;5.712;2023-09-19T15:38:30;17.30;99.90
18260;DHT22;9256;52.236;5.712;2023-09-19T15:40:58;17.40;99.90
18260;DHT22;9256;52.236;5.712;2023-09-19T15:43:25;17.30;99.90
18260;DHT22;9256;52.236;5.712;2023-09-19T15:45:52;17.30;99.90
18260;DHT22;9256;52.236;5.712;2023-09-19T15:48:22;17.20;99.90
18260;DHT22;9256;52.236;5.712;2023-09-19T15:50:49;17.20;99.90
18260;DHT22;9256;52.236;5.712;2023-09-19T15:53:17;17.30;99.90
18260;DHT22;9256;52.236;5.712;2023-09-19T15:55:44;17.30;99.90
18260;DHT22;9256;52.236;5.712;2023-09-19T15:58:12;17.30;99.90
18260;DHT22;9256;52.236;5.712;2023-09-19T16:00:42;17.30;99.90
18260;DHT22;9256;52.236;5.712;2023-09-19T16:03:09;17.30;99.90
18260;DHT22;9256;52.236;5.712;2023-09-19T16:05:36;17.40;99.90
18260;DHT22;9256;52.236;5.712;2023-09-19T16:08:06;17.40;99.90
18260;DHT22;9256;52.236;5.712;2023-09-19T16:10:36;17.50;99.90